sensor_id;sensor_type;location;lat;lon;timestamp;P1;durP1;ratioP1;P2;durP2;ratioP2
1725;SDS011;41776;48.260;8.928;2022-11-18T00:01:32;0.70;;;0.70;;
1725;SDS011;41776;48.260;8.928;2022-11-18T00:03:59;0.60;;;0.60;;
1725;SDS011;41776;48.260;8.928;2022-11-18T00:06:26;1.17;;;0.50;;
1725;SDS011;41776;48.260;8.928;2022-11-18T00:08:54;0.63;;;0.57;;
1725;SDS011;41776;48.260;8.928;2022-11-18T00:11:22;0.50;;;0.40;;
1725;SDS011;41776;48.260;8.928;2022-11-18T00:14:10;1.63;;;0.47;;
1725;SDS011;41776;48.260;8.928;2022-11-18T00:16:44;0.40;;;0.40;;
1725;SDS011;41776;48.260;8.928;2022-11-18T00:19:12;0.50;;;0.50;;
1725;SDS011;41776;48.260;8.928;2022-11-18T00:21:38;1.37;;;0.70;;
1725;SDS011;41776;48.260;8.928;2022-11-18T00:24:05;0.50;;;0.50;;
1725;SDS011;41776;48.260;8.928;2022-11-18T00:26:33;0.90;;;0.70;;
1725;SDS011;41776;48.260;8.928;2022-11-18T00:29:00;0.80;;;0.80;;
1725;SDS011;41776;48.260;8.928;2022-11-18T00:31:26;0.70;;;0.60;;
1725;SDS011;41776;48.260;8.928;2022-11-18T00:33:53;1.03;;;0.90;;
1725;SDS011;41776;48.260;8.928;2022-11-18T00:36:20;0.70;;;0.70;;
1725;SDS011;41776;48.260;8.928;2022-11-18T00:38:46;0.73;;;0.70;;
1725;SDS011;41776;48.260;8.928;2022-11-18T00:41:14;1.33;;;0.87;;
1725;SDS011;41776;48.260;8.928;2022-11-18T00:43:42;1.30;;;0.77;;
1725;SDS011;41776;48.260;8.928;2022-11-18T00:46:08;1.67;;;1.05;;
1725;SDS011;41776;48.260;8.928;2022-11-18T00:48:36;1.03;;;0.80;;
1725;SDS011;41776;48.260;8.928;2022-11-18T00:51:08;1.20;;;0.80;;
1725;SDS011;41776;48.260;8.928;2022-11-18T00:53:36;1.37;;;0.90;;
1725;SDS011;41776;48.260;8.928;2022-11-18T00:56:02;1.27;;;0.90;;
1725;SDS011;41776;48.260;8.928;2022-11-18T00:58:29;2.80;;;0.80;;
1725;SDS011;41776;48.260;8.928;2022-11-18T01:00:57;2.60;;;0.80;;
1725;SDS011;41776;48.260;8.928;2022-11-18T01:03:24;1.10;;;0.83;;
1725;SDS011;41776;48.260;8.928;2022-11-18T01:05:51;1.50;;;1.00;;
1725;SDS011;41776;48.260;8.928;2022-11-18T01:08:18;1.07;;;0.83;;
1725;SDS011;41776;48.260;8.928;2022-11-18T01:10:45;2.30;;;0.97;;
1725;SDS011;41776;48.260;8.928;2022-11-18T01:13:14;0.80;;;0.80;;
1725;SDS011;41776;48.260;8.928;2022-11-18T01:15:44;3.53;;;0.70;;
1725;SDS011;41776;48.260;8.928;2022-11-18T01:18:14;1.50;;;0.80;;
1725;SDS011;41776;48.260;8.928;2022-11-18T01:20:41;1.30;;;0.67;;
1725;SDS011;41776;48.260;8.928;2022-11-18T01:23:08;1.30;;;0.77;;
1725;SDS011;41776;48.260;8.928;2022-11-18T01:25:35;0.63;;;0.63;;
1725;SDS011;41776;48.260;8.928;2022-11-18T01:28:02;0.93;;;0.63;;
1725;SDS011;41776;48.260;8.928;2022-11-18T01:30:31;1.00;;;0.90;;
1725;SDS011;41776;48.260;8.928;2022-11-18T01:32:59;1.83;;;0.90;;
1725;SDS011;41776;48.260;8.928;2022-11-18T01:35:27;2.45;;;1.00;;
1725;SDS011;41776;48.260;8.928;2022-11-18T01:37:53;0.90;;;0.90;;
1725;SDS011;41776;48.260;8.928;2022-11-18T01:40:20;1.23;;;0.90;;
1725;SDS011;41776;48.260;8.928;2022-11-18T01:42:46;0.90;;;0.90;;
1725;SDS011;41776;48.260;8.928;2022-11-18T01:47:59;2.93;;;1.33;;
1725;SDS011;41776;48.260;8.928;2022-11-18T01:50:31;6.20;;;1.40;;
1725;SDS011;41776;48.260;8.928;2022-11-18T01:53:00;1.10;;;1.00;;
1725;SDS011;41776;48.260;8.928;2022-11-18T01:55:36;1.37;;;1.27;;
1725;SDS011;41776;48.260;8.928;2022-11-18T01:58:09;1.57;;;1.23;;
1725;SDS011;41776;48.260;8.928;2022-11-18T02:00:39;1.10;;;0.97;;
1725;SDS011;41776;48.260;8.928;2022-11-18T02:03:06;1.40;;;1.10;;
1725;SDS011;41776;48.260;8.928;2022-11-18T02:05:35;1.63;;;1.10;;
1725;SDS011;41776;48.260;8.928;2022-11-18T02:08:04;4.33;;;1.30;;
1725;SDS011;41776;48.260;8.928;2022-11-18T02:10:32;2.90;;;1.23;;
1725;SDS011;41776;48.260;8.928;2022-11-18T02:12:59;1.63;;;1.20;;
1725;SDS011;41776;48.260;8.928;2022-11-18T02:15:30;1.37;;;1.20;;
1725;SDS011;41776;48.260;8.928;2022-11-18T02:18:09;1.20;;;0.90;;
1725;SDS011;41776;48.260;8.928;2022-11-18T02:20:44;1.40;;;1.10;;
1725;SDS011;41776;48.260;8.928;2022-11-18T02:23:28;1.47;;;0.80;;
1725;SDS011;41776;48.260;8.928;2022-11-18T02:29:01;2.67;;;1.10;;
1725;SDS011;41776;48.260;8.928;2022-11-18T02:31:34;1.50;;;1.10;;
1725;SDS011;41776;48.260;8.928;2022-11-18T02:34:08;1.13;;;1.00;;
1725;SDS011;41776;48.260;8.928;2022-11-18T02:36:42;1.27;;;0.90;;
1725;SDS011;41776;48.260;8.928;2022-11-18T02:39:16;2.20;;;0.97;;
1725;SDS011;41776;48.260;8.928;2022-11-18T02:41:48;2.43;;;0.90;;
1725;SDS011;41776;48.260;8.928;2022-11-18T02:44:20;2.67;;;1.03;;
1725;SDS011;41776;48.260;8.928;2022-11-18T02:46:52;1.10;;;1.00;;
1725;SDS011;41776;48.260;8.928;2022-11-18T02:49:22;3.70;;;1.00;;
1725;SDS011;41776;48.260;8.928;2022-11-18T02:51:54;1.77;;;0.97;;
1725;SDS011;41776;48.260;8.928;2022-11-18T02:54:22;0.80;;;0.80;;
1725;SDS011;41776;48.260;8.928;2022-11-18T02:56:52;1.30;;;1.00;;
1725;SDS011;41776;48.260;8.928;2022-11-18T02:59:21;1.00;;;0.90;;
1725;SDS011;41776;48.260;8.928;2022-11-18T03:01:47;1.13;;;0.90;;
1725;SDS011;41776;48.260;8.928;2022-11-18T03:04:14;2.67;;;1.20;;
1725;SDS011;41776;48.260;8.928;2022-11-18T03:06:42;0.83;;;0.80;;
1725;SDS011;41776;48.260;8.928;2022-11-18T03:09:13;4.50;;;1.00;;
1725;SDS011;41776;48.260;8.928;2022-11-18T03:11:47;1.40;;;0.80;;
1725;SDS011;41776;48.260;8.928;2022-11-18T03:14:22;1.50;;;0.90;;
1725;SDS011;41776;48.260;8.928;2022-11-18T03:16:57;5.37;;;1.10;;
1725;SDS011;41776;48.260;8.928;2022-11-18T03:19:28;1.77;;;1.00;;
1725;SDS011;41776;48.260;8.928;2022-11-18T03:22:07;3.70;;;1.27;;
1725;SDS011;41776;48.260;8.928;2022-11-18T03:24:39;3.17;;;1.10;;
1725;SDS011;41776;48.260;8.928;2022-11-18T03:27:11;1.53;;;1.03;;
1725;SDS011;41776;48.260;8.928;2022-11-18T03:29:43;1.83;;;1.10;;
1725;SDS011;41776;48.260;8.928;2022-11-18T03:32:18;3.43;;;0.97;;
1725;SDS011;41776;48.260;8.928;2022-11-18T03:34:49;1.57;;;1.10;;
1725;SDS011;41776;48.260;8.928;2022-11-18T03:37:21;2.50;;;1.10;;
1725;SDS011;41776;48.260;8.928;2022-11-18T03:39:51;2.50;;;0.80;;
1725;SDS011;41776;48.260;8.928;2022-11-18T03:42:22;0.87;;;0.70;;
1725;SDS011;41776;48.260;8.928;2022-11-18T03:44:53;5.07;;;0.90;;
1725;SDS011;41776;48.260;8.928;2022-11-18T03:47:25;1.43;;;0.80;;
1725;SDS011;41776;48.260;8.928;2022-11-18T03:49:57;2.95;;;0.82;;
1725;SDS011;41776;48.260;8.928;2022-11-18T03:52:28;0.73;;;0.60;;
1725;SDS011;41776;48.260;8.928;2022-11-18T03:54:58;0.77;;;0.50;;
1725;SDS011;41776;48.260;8.928;2022-11-18T03:57:30;1.33;;;0.83;;
1725;SDS011;41776;48.260;8.928;2022-11-18T04:00:07;0.80;;;0.80;;
1725;SDS011;41776;48.260;8.928;2022-11-18T04:02:35;0.93;;;0.60;;
1725;SDS011;41776;48.260;8.928;2022-11-18T04:05:03;1.73;;;0.90;;
1725;SDS011;41776;48.260;8.928;2022-11-18T04:07:33;1.43;;;0.90;;
1725;SDS011;41776;48.260;8.928;2022-11-18T04:10:05;1.30;;;0.90;;
1725;SDS011;41776;48.260;8.928;2022-11-18T04:12:38;0.60;;;0.60;;
1725;SDS011;41776;48.260;8.928;2022-11-18T04:15:10;2.77;;;1.23;;
1725;SDS011;41776;48.260;8.928;2022-11-18T04:17:39;2.07;;;1.50;;
1725;SDS011;41776;48.260;8.928;2022-11-18T04:20:08;1.30;;;0.93;;
1725;SDS011;41776;48.260;8.928;2022-11-18T04:22:38;0.50;;;0.50;;
1725;SDS011;41776;48.260;8.928;2022-11-18T04:25:05;0.50;;;0.50;;
1725;SDS011;41776;48.260;8.928;2022-11-18T04:27:31;0.70;;;0.53;;
1725;SDS011;41776;48.260;8.928;2022-11-18T04:29:58;0.70;;;0.70;;
1725;SDS011;41776;48.260;8.928;2022-11-18T04:32:26;1.37;;;0.80;;
1725;SDS011;41776;48.260;8.928;2022-11-18T04:34:52;3.63;;;0.80;;
1725;SDS011;41776;48.260;8.928;2022-11-18T04:37:19;1.10;;;0.50;;
1725;SDS011;41776;48.260;8.928;2022-11-18T04:39:45;0.40;;;0.40;;
1725;SDS011;41776;48.260;8.928;2022-11-18T04:42:12;0.70;;;0.60;;
1725;SDS011;41776;48.260;8.928;2022-11-18T04:44:38;0.50;;;0.50;;
1725;SDS011;41776;48.260;8.928;2022-11-18T04:47:05;1.47;;;0.50;;
1725;SDS011;41776;48.260;8.928;2022-11-18T04:49:33;3.07;;;0.80;;
1725;SDS011;41776;48.260;8.928;2022-11-18T04:52:00;0.50;;;0.50;;
1725;SDS011;41776;48.260;8.928;2022-11-18T04:54:27;0.50;;;0.50;;
1725;SDS011;41776;48.260;8.928;2022-11-18T04:56:54;1.83;;;0.70;;
1725;SDS011;41776;48.260;8.928;2022-11-18T04:59:22;0.50;;;0.50;;
1725;SDS011;41776;48.260;8.928;2022-11-18T05:01:50;0.67;;;0.40;;
1725;SDS011;41776;48.260;8.928;2022-11-18T05:04:17;0.60;;;0.60;;
1725;SDS011;41776;48.260;8.928;2022-11-18T05:06:47;0.60;;;0.57;;
1725;SDS011;41776;48.260;8.928;2022-11-18T05:09:13;0.60;;;0.50;;
1725;SDS011;41776;48.260;8.928;2022-11-18T05:11:40;0.93;;;0.50;;
1725;SDS011;41776;48.260;8.928;2022-11-18T05:14:24;0.57;;;0.50;;
1725;SDS011;41776;48.260;8.928;2022-11-18T05:16:51;0.67;;;0.57;;
1725;SDS011;41776;48.260;8.928;2022-11-18T05:19:18;0.60;;;0.50;;
1725;SDS011;41776;48.260;8.928;2022-11-18T05:21:44;1.90;;;0.60;;
1725;SDS011;41776;48.260;8.928;2022-11-18T05:24:12;1.10;;;0.53;;
1725;SDS011;41776;48.260;8.928;2022-11-18T05:26:39;0.63;;;0.50;;
1725;SDS011;41776;48.260;8.928;2022-11-18T05:29:05;1.43;;;0.60;;
1725;SDS011;41776;48.260;8.928;2022-11-18T05:31:32;1.43;;;0.83;;
1725;SDS011;41776;48.260;8.928;2022-11-18T05:33:58;0.50;;;0.50;;
1725;SDS011;41776;48.260;8.928;2022-11-18T05:36:25;0.73;;;0.50;;
1725;SDS011;41776;48.260;8.928;2022-11-18T05:38:53;0.80;;;0.80;;
1725;SDS011;41776;48.260;8.928;2022-11-18T05:41:19;0.40;;;0.40;;
1725;SDS011;41776;48.260;8.928;2022-11-18T05:44:03;0.80;;;0.80;;
1725;SDS011;41776;48.260;8.928;2022-11-18T05:46:30;0.97;;;0.70;;
1725;SDS011;41776;48.260;8.928;2022-11-18T05:48:57;2.53;;;0.80;;
1725;SDS011;41776;48.260;8.928;2022-11-18T05:51:24;0.60;;;0.60;;
1725;SDS011;41776;48.260;8.928;2022-11-18T05:53:50;1.23;;;0.40;;
1725;SDS011;41776;48.260;8.928;2022-11-18T05:56:20;1.00;;;0.73;;
1725;SDS011;41776;48.260;8.928;2022-11-18T05:58:50;0.93;;;0.57;;
1725;SDS011;41776;48.260;8.928;2022-11-18T06:01:17;0.90;;;0.67;;
1725;SDS011;41776;48.260;8.928;2022-11-18T06:03:48;1.00;;;0.80;;
1725;SDS011;41776;48.260;8.928;2022-11-18T06:06:15;0.77;;;0.70;;
1725;SDS011;41776;48.260;8.928;2022-11-18T06:08:45;0.70;;;0.70;;
1725;SDS011;41776;48.260;8.928;2022-11-18T06:11:18;3.77;;;0.80;;
1725;SDS011;41776;48.260;8.928;2022-11-18T06:13:46;0.60;;;0.60;;
1725;SDS011;41776;48.260;8.928;2022-11-18T06:16:17;1.20;;;0.60;;
1725;SDS011;41776;48.260;8.928;2022-11-18T06:18:49;0.90;;;0.70;;
1725;SDS011;41776;48.260;8.928;2022-11-18T06:21:15;1.10;;;0.60;;
1725;SDS011;41776;48.260;8.928;2022-11-18T06:23:42;1.07;;;0.70;;
1725;SDS011;41776;48.260;8.928;2022-11-18T06:26:09;2.70;;;0.60;;
1725;SDS011;41776;48.260;8.928;2022-11-18T06:28:37;1.40;;;0.80;;
1725;SDS011;41776;48.260;8.928;2022-11-18T06:31:05;1.67;;;0.90;;
1725;SDS011;41776;48.260;8.928;2022-11-18T06:33:32;1.20;;;0.90;;
1725;SDS011;41776;48.260;8.928;2022-11-18T06:35:58;2.70;;;1.00;;
1725;SDS011;41776;48.260;8.928;2022-11-18T06:38:25;1.20;;;0.73;;
1725;SDS011;41776;48.260;8.928;2022-11-18T06:40:51;0.50;;;0.43;;
1725;SDS011;41776;48.260;8.928;2022-11-18T06:43:18;2.10;;;0.80;;
1725;SDS011;41776;48.260;8.928;2022-11-18T06:46:03;0.40;;;0.40;;
1725;SDS011;41776;48.260;8.928;2022-11-18T06:48:49;0.40;;;0.40;;
1725;SDS011;41776;48.260;8.928;2022-11-18T06:51:16;0.67;;;0.60;;
1725;SDS011;41776;48.260;8.928;2022-11-18T06:53:43;0.60;;;0.60;;
1725;SDS011;41776;48.260;8.928;2022-11-18T06:56:10;0.80;;;0.50;;
1725;SDS011;41776;48.260;8.928;2022-11-18T06:58:38;0.53;;;0.53;;
1725;SDS011;41776;48.260;8.928;2022-11-18T07:01:10;2.53;;;0.70;;
1725;SDS011;41776;48.260;8.928;2022-11-18T07:03:37;0.60;;;0.60;;
1725;SDS011;41776;48.260;8.928;2022-11-18T07:06:04;0.60;;;0.60;;
1725;SDS011;41776;48.260;8.928;2022-11-18T07:08:32;0.90;;;0.90;;
1725;SDS011;41776;48.260;8.928;2022-11-18T07:10:59;1.30;;;0.90;;
1725;SDS011;41776;48.260;8.928;2022-11-18T07:13:26;1.10;;;1.00;;
1725;SDS011;41776;48.260;8.928;2022-11-18T07:15:52;1.20;;;1.10;;
1725;SDS011;41776;48.260;8.928;2022-11-18T07:18:20;2.13;;;1.43;;
1725;SDS011;41776;48.260;8.928;2022-11-18T07:20:46;1.40;;;1.30;;
1725;SDS011;41776;48.260;8.928;2022-11-18T07:23:13;0.70;;;0.70;;
1725;SDS011;41776;48.260;8.928;2022-11-18T07:25:39;1.67;;;1.07;;
1725;SDS011;41776;48.260;8.928;2022-11-18T07:28:06;1.10;;;1.00;;
1725;SDS011;41776;48.260;8.928;2022-11-18T07:30:32;0.67;;;0.67;;
1725;SDS011;41776;48.260;8.928;2022-11-18T07:32:59;0.70;;;0.70;;
1725;SDS011;41776;48.260;8.928;2022-11-18T07:35:27;2.50;;;1.70;;
1725;SDS011;41776;48.260;8.928;2022-11-18T07:37:53;7.37;;;3.20;;
1725;SDS011;41776;48.260;8.928;2022-11-18T07:40:19;16.57;;;5.60;;
1725;SDS011;41776;48.260;8.928;2022-11-18T07:42:46;4.40;;;2.20;;
1725;SDS011;41776;48.260;8.928;2022-11-18T07:45:12;1.00;;;0.77;;
1725;SDS011;41776;48.260;8.928;2022-11-18T07:47:39;0.63;;;0.63;;
1725;SDS011;41776;48.260;8.928;2022-11-18T07:50:06;0.97;;;0.80;;
1725;SDS011;41776;48.260;8.928;2022-11-18T07:52:34;2.40;;;0.97;;
1725;SDS011;41776;48.260;8.928;2022-11-18T07:55:01;1.23;;;0.73;;
1725;SDS011;41776;48.260;8.928;2022-11-18T07:57:27;0.80;;;0.80;;
1725;SDS011;41776;48.260;8.928;2022-11-18T07:59:54;1.63;;;0.90;;
1725;SDS011;41776;48.260;8.928;2022-11-18T08:02:20;1.67;;;1.07;;
1725;SDS011;41776;48.260;8.928;2022-11-18T08:04:46;1.47;;;0.90;;
1725;SDS011;41776;48.260;8.928;2022-11-18T08:07:13;1.17;;;0.80;;
1725;SDS011;41776;48.260;8.928;2022-11-18T08:09:41;3.80;;;2.73;;
1725;SDS011;41776;48.260;8.928;2022-11-18T08:12:07;2.93;;;2.37;;
1725;SDS011;41776;48.260;8.928;2022-11-18T08:14:34;2.97;;;2.20;;
1725;SDS011;41776;48.260;8.928;2022-11-18T08:17:00;2.83;;;1.83;;
1725;SDS011;41776;48.260;8.928;2022-11-18T08:19:27;1.70;;;1.17;;
1725;SDS011;41776;48.260;8.928;2022-11-18T08:21:53;1.67;;;1.10;;
1725;SDS011;41776;48.260;8.928;2022-11-18T08:24:20;1.45;;;1.20;;
1725;SDS011;41776;48.260;8.928;2022-11-18T08:26:48;1.10;;;1.00;;
1725;SDS011;41776;48.260;8.928;2022-11-18T08:29:14;2.33;;;1.50;;
1725;SDS011;41776;48.260;8.928;2022-11-18T08:31:41;1.00;;;0.90;;
1725;SDS011;41776;48.260;8.928;2022-11-18T08:34:07;1.60;;;1.00;;
1725;SDS011;41776;48.260;8.928;2022-11-18T08:36:35;3.90;;;1.48;;
1725;SDS011;41776;48.260;8.928;2022-11-18T08:39:03;2.23;;;0.80;;
1725;SDS011;41776;48.260;8.928;2022-11-18T08:41:32;1.53;;;1.03;;
1725;SDS011;41776;48.260;8.928;2022-11-18T08:44:01;2.50;;;0.90;;
1725;SDS011;41776;48.260;8.928;2022-11-18T08:46:29;1.30;;;1.00;;
1725;SDS011;41776;48.260;8.928;2022-11-18T08:48:56;5.03;;;1.13;;
1725;SDS011;41776;48.260;8.928;2022-11-18T08:51:23;1.07;;;0.90;;
1725;SDS011;41776;48.260;8.928;2022-11-18T08:53:50;1.73;;;1.20;;
1725;SDS011;41776;48.260;8.928;2022-11-18T08:56:17;2.47;;;0.80;;
1725;SDS011;41776;48.260;8.928;2022-11-18T08:58:45;0.87;;;0.83;;
1725;SDS011;41776;48.260;8.928;2022-11-18T09:01:13;4.40;;;1.20;;
1725;SDS011;41776;48.260;8.928;2022-11-18T09:03:40;1.43;;;0.90;;
1725;SDS011;41776;48.260;8.928;2022-11-18T09:06:07;1.70;;;1.00;;
1725;SDS011;41776;48.260;8.928;2022-11-18T09:08:35;1.87;;;1.10;;
1725;SDS011;41776;48.260;8.928;2022-11-18T09:11:03;2.40;;;1.30;;
1725;SDS011;41776;48.260;8.928;2022-11-18T09:13:31;1.10;;;1.00;;
1725;SDS011;41776;48.260;8.928;2022-11-18T09:15:57;1.63;;;1.17;;
1725;SDS011;41776;48.260;8.928;2022-11-18T09:18:25;2.00;;;1.00;;
1725;SDS011;41776;48.260;8.928;2022-11-18T09:20:52;1.87;;;1.20;;
1725;SDS011;41776;48.260;8.928;2022-11-18T09:23:19;2.40;;;1.10;;
1725;SDS011;41776;48.260;8.928;2022-11-18T09:25:47;1.77;;;1.20;;
1725;SDS011;41776;48.260;8.928;2022-11-18T09:28:13;3.47;;;1.20;;
1725;SDS011;41776;48.260;8.928;2022-11-18T09:30:40;2.10;;;0.93;;
1725;SDS011;41776;48.260;8.928;2022-11-18T09:33:06;2.07;;;1.10;;
1725;SDS011;41776;48.260;8.928;2022-11-18T09:35:34;1.00;;;0.70;;
1725;SDS011;41776;48.260;8.928;2022-11-18T09:38:00;0.97;;;0.90;;
1725;SDS011;41776;48.260;8.928;2022-11-18T09:40:27;2.60;;;0.90;;
1725;SDS011;41776;48.260;8.928;2022-11-18T09:42:55;1.43;;;0.97;;
1725;SDS011;41776;48.260;8.928;2022-11-18T09:45:32;2.23;;;1.10;;
1725;SDS011;41776;48.260;8.928;2022-11-18T09:48:06;0.87;;;0.80;;
1725;SDS011;41776;48.260;8.928;2022-11-18T09:50:42;1.97;;;0.83;;
1725;SDS011;41776;48.260;8.928;2022-11-18T09:53:11;1.27;;;0.90;;
1725;SDS011;41776;48.260;8.928;2022-11-18T09:55:44;0.70;;;0.70;;
1725;SDS011;41776;48.260;8.928;2022-11-18T09:58:12;2.27;;;1.13;;
1725;SDS011;41776;48.260;8.928;2022-11-18T10:00:43;1.00;;;0.70;;
1725;SDS011;41776;48.260;8.928;2022-11-18T10:03:12;2.17;;;0.83;;
1725;SDS011;41776;48.260;8.928;2022-11-18T10:05:44;1.60;;;0.77;;
1725;SDS011;41776;48.260;8.928;2022-11-18T10:08:18;0.70;;;0.70;;
1725;SDS011;41776;48.260;8.928;2022-11-18T10:10:53;0.47;;;0.47;;
1725;SDS011;41776;48.260;8.928;2022-11-18T10:13:28;4.37;;;0.70;;
1725;SDS011;41776;48.260;8.928;2022-11-18T10:16:07;0.63;;;0.53;;
1725;SDS011;41776;48.260;8.928;2022-11-18T10:18:46;0.50;;;0.50;;
1725;SDS011;41776;48.260;8.928;2022-11-18T10:21:22;3.47;;;1.70;;
1725;SDS011;41776;48.260;8.928;2022-11-18T10:23:58;1.23;;;0.70;;
1725;SDS011;41776;48.260;8.928;2022-11-18T10:26:31;0.70;;;0.70;;
1725;SDS011;41776;48.260;8.928;2022-11-18T10:28:59;0.50;;;0.50;;
1725;SDS011;41776;48.260;8.928;2022-11-18T10:31:26;0.50;;;0.50;;
1725;SDS011;41776;48.260;8.928;2022-11-18T10:33:57;0.53;;;0.53;;
1725;SDS011;41776;48.260;8.928;2022-11-18T10:36:27;0.83;;;0.63;;
1725;SDS011;41776;48.260;8.928;2022-11-18T10:39:04;1.13;;;0.60;;
1725;SDS011;41776;48.260;8.928;2022-11-18T10:41:41;3.30;;;1.37;;
1725;SDS011;41776;48.260;8.928;2022-11-18T10:47:23;0.53;;;0.50;;
1725;SDS011;41776;48.260;8.928;2022-11-18T10:49:52;0.90;;;0.70;;
1725;SDS011;41776;48.260;8.928;2022-11-18T10:52:21;1.53;;;0.77;;
1725;SDS011;41776;48.260;8.928;2022-11-18T10:55:08;0.57;;;0.57;;
1725;SDS011;41776;48.260;8.928;2022-11-18T10:57:46;0.67;;;0.60;;
1725;SDS011;41776;48.260;8.928;2022-11-18T11:00:36;0.50;;;0.50;;
1725;SDS011;41776;48.260;8.928;2022-11-18T11:09:01;1.00;;;0.50;;
1725;SDS011;41776;48.260;8.928;2022-11-18T11:11:31;0.57;;;0.57;;
1725;SDS011;41776;48.260;8.928;2022-11-18T11:14:06;0.50;;;0.50;;
1725;SDS011;41776;48.260;8.928;2022-11-18T11:16:42;0.73;;;0.67;;
1725;SDS011;41776;48.260;8.928;2022-11-18T11:19:13;1.13;;;0.50;;
1725;SDS011;41776;48.260;8.928;2022-11-18T11:21:44;2.37;;;0.50;;
1725;SDS011;41776;48.260;8.928;2022-11-18T11:24:12;0.40;;;0.40;;
1725;SDS011;41776;48.260;8.928;2022-11-18T11:26:42;0.60;;;0.60;;
1725;SDS011;41776;48.260;8.928;2022-11-18T11:29:35;1.93;;;1.73;;
1725;SDS011;41776;48.260;8.928;2022-11-18T11:32:18;0.60;;;0.60;;
1725;SDS011;41776;48.260;8.928;2022-11-18T11:34:54;0.93;;;0.70;;
1725;SDS011;41776;48.260;8.928;2022-11-18T11:37:28;0.40;;;0.40;;
1725;SDS011;41776;48.260;8.928;2022-11-18T11:40:05;0.80;;;0.50;;
1725;SDS011;41776;48.260;8.928;2022-11-18T11:42:46;1.80;;;1.10;;
1725;SDS011;41776;48.260;8.928;2022-11-18T11:45:23;2.80;;;0.70;;
1725;SDS011;41776;48.260;8.928;2022-11-18T11:48:03;0.60;;;0.60;;
1725;SDS011;41776;48.260;8.928;2022-11-18T11:50:45;2.57;;;0.50;;
1725;SDS011;41776;48.260;8.928;2022-11-18T11:53:27;0.60;;;0.60;;
1725;SDS011;41776;48.260;8.928;2022-11-18T11:56:06;1.50;;;1.10;;
1725;SDS011;41776;48.260;8.928;2022-11-18T11:58:44;0.93;;;0.83;;
1725;SDS011;41776;48.260;8.928;2022-11-18T12:01:38;4.80;;;0.83;;
1725;SDS011;41776;48.260;8.928;2022-11-18T12:04:16;1.83;;;1.10;;
1725;SDS011;41776;48.260;8.928;2022-11-18T12:07:11;1.53;;;1.07;;
1725;SDS011;41776;48.260;8.928;2022-11-18T12:09:49;4.37;;;1.10;;
1725;SDS011;41776;48.260;8.928;2022-11-18T12:12:30;1.90;;;0.83;;
1725;SDS011;41776;48.260;8.928;2022-11-18T12:15:04;1.83;;;0.80;;
1725;SDS011;41776;48.260;8.928;2022-11-18T12:17:43;4.63;;;1.40;;
1725;SDS011;41776;48.260;8.928;2022-11-18T12:20:36;4.57;;;0.87;;
1725;SDS011;41776;48.260;8.928;2022-11-18T12:23:07;5.33;;;1.63;;
1725;SDS011;41776;48.260;8.928;2022-11-18T12:25:51;2.97;;;0.90;;
1725;SDS011;41776;48.260;8.928;2022-11-18T12:28:31;2.03;;;0.97;;
1725;SDS011;41776;48.260;8.928;2022-11-18T12:33:57;1.43;;;0.80;;
1725;SDS011;41776;48.260;8.928;2022-11-18T12:36:27;2.10;;;1.00;;
1725;SDS011;41776;48.260;8.928;2022-11-18T12:38:55;1.87;;;0.83;;
1725;SDS011;41776;48.260;8.928;2022-11-18T12:44:39;0.60;;;0.60;;
1725;SDS011;41776;48.260;8.928;2022-11-18T12:47:07;2.73;;;0.80;;
1725;SDS011;41776;48.260;8.928;2022-11-18T12:52:48;0.90;;;0.70;;
1725;SDS011;41776;48.260;8.928;2022-11-18T12:55:24;1.50;;;0.77;;
1725;SDS011;41776;48.260;8.928;2022-11-18T12:57:55;1.67;;;0.93;;
1725;SDS011;41776;48.260;8.928;2022-11-18T13:00:30;1.40;;;0.60;;
1725;SDS011;41776;48.260;8.928;2022-11-18T13:03:20;1.57;;;0.50;;
1725;SDS011;41776;48.260;8.928;2022-11-18T13:05:57;1.53;;;0.80;;
1725;SDS011;41776;48.260;8.928;2022-11-18T13:08:26;2.30;;;0.70;;
1725;SDS011;41776;48.260;8.928;2022-11-18T13:10:54;1.05;;;0.60;;
1725;SDS011;41776;48.260;8.928;2022-11-18T13:13:42;1.60;;;0.73;;
1725;SDS011;41776;48.260;8.928;2022-11-18T13:16:17;0.90;;;0.50;;
1725;SDS011;41776;48.260;8.928;2022-11-18T13:19:03;1.87;;;0.77;;
1725;SDS011;41776;48.260;8.928;2022-11-18T13:21:30;1.70;;;0.70;;
1725;SDS011;41776;48.260;8.928;2022-11-18T13:24:15;1.80;;;0.70;;
1725;SDS011;41776;48.260;8.928;2022-11-18T13:26:43;6.67;;;1.23;;
1725;SDS011;41776;48.260;8.928;2022-11-18T13:29:16;1.80;;;0.90;;
1725;SDS011;41776;48.260;8.928;2022-11-18T13:32:05;3.33;;;0.73;;
1725;SDS011;41776;48.260;8.928;2022-11-18T13:34:44;5.03;;;1.43;;
1725;SDS011;41776;48.260;8.928;2022-11-18T13:37:14;1.57;;;0.57;;
1725;SDS011;41776;48.260;8.928;2022-11-18T13:39:44;4.77;;;0.77;;
1725;SDS011;41776;48.260;8.928;2022-11-18T13:42:14;3.40;;;1.33;;
1725;SDS011;41776;48.260;8.928;2022-11-18T13:44:44;2.17;;;0.70;;
1725;SDS011;41776;48.260;8.928;2022-11-18T13:47:15;3.90;;;0.80;;
1725;SDS011;41776;48.260;8.928;2022-11-18T13:49:50;1.17;;;0.50;;
1725;SDS011;41776;48.260;8.928;2022-11-18T13:52:22;0.70;;;0.70;;
1725;SDS011;41776;48.260;8.928;2022-11-18T13:54:51;2.30;;;0.60;;
1725;SDS011;41776;48.260;8.928;2022-11-18T13:57:21;1.17;;;0.80;;
1725;SDS011;41776;48.260;8.928;2022-11-18T13:59:50;1.33;;;0.70;;
1725;SDS011;41776;48.260;8.928;2022-11-18T14:02:20;2.47;;;0.93;;
1725;SDS011;41776;48.260;8.928;2022-11-18T14:04:48;4.37;;;1.93;;
1725;SDS011;41776;48.260;8.928;2022-11-18T14:07:28;2.17;;;1.00;;
1725;SDS011;41776;48.260;8.928;2022-11-18T14:09:57;1.37;;;1.00;;
1725;SDS011;41776;48.260;8.928;2022-11-18T14:12:26;1.60;;;0.90;;
1725;SDS011;41776;48.260;8.928;2022-11-18T14:17:49;2.97;;;0.90;;
1725;SDS011;41776;48.260;8.928;2022-11-18T14:20:18;1.13;;;0.80;;
1725;SDS011;41776;48.260;8.928;2022-11-18T14:22:45;2.20;;;1.40;;
1725;SDS011;41776;48.260;8.928;2022-11-18T14:25:16;2.37;;;1.20;;
1725;SDS011;41776;48.260;8.928;2022-11-18T14:27:45;2.83;;;1.47;;
1725;SDS011;41776;48.260;8.928;2022-11-18T14:33:15;2.83;;;1.30;;
1725;SDS011;41776;48.260;8.928;2022-11-18T14:35:47;6.03;;;1.47;;
1725;SDS011;41776;48.260;8.928;2022-11-18T14:38:16;2.50;;;1.20;;
1725;SDS011;41776;48.260;8.928;2022-11-18T14:40:44;3.87;;;2.37;;
1725;SDS011;41776;48.260;8.928;2022-11-18T14:43:14;3.57;;;1.80;;
1725;SDS011;41776;48.260;8.928;2022-11-18T14:45:40;4.43;;;2.63;;
1725;SDS011;41776;48.260;8.928;2022-11-18T14:48:08;3.80;;;1.97;;
1725;SDS011;41776;48.260;8.928;2022-11-18T14:50:38;4.53;;;1.60;;
1725;SDS011;41776;48.260;8.928;2022-11-18T14:53:05;3.30;;;1.57;;
1725;SDS011;41776;48.260;8.928;2022-11-18T14:55:31;2.60;;;1.40;;
1725;SDS011;41776;48.260;8.928;2022-11-18T14:58:01;5.23;;;3.00;;
1725;SDS011;41776;48.260;8.928;2022-11-18T15:00:27;2.00;;;1.20;;
1725;SDS011;41776;48.260;8.928;2022-11-18T15:02:54;4.23;;;2.33;;
1725;SDS011;41776;48.260;8.928;2022-11-18T15:05:20;7.03;;;1.97;;
1725;SDS011;41776;48.260;8.928;2022-11-18T15:07:48;4.57;;;2.20;;
1725;SDS011;41776;48.260;8.928;2022-11-18T15:10:15;6.83;;;2.50;;
1725;SDS011;41776;48.260;8.928;2022-11-18T15:12:42;7.03;;;2.27;;
1725;SDS011;41776;48.260;8.928;2022-11-18T15:15:08;3.80;;;1.60;;
1725;SDS011;41776;48.260;8.928;2022-11-18T15:17:35;3.00;;;1.20;;
1725;SDS011;41776;48.260;8.928;2022-11-18T15:20:02;2.53;;;1.43;;
1725;SDS011;41776;48.260;8.928;2022-11-18T15:22:31;4.37;;;1.20;;
1725;SDS011;41776;48.260;8.928;2022-11-18T15:24:59;2.50;;;1.30;;
1725;SDS011;41776;48.260;8.928;2022-11-18T15:27:26;3.30;;;1.37;;
1725;SDS011;41776;48.260;8.928;2022-11-18T15:29:52;1.57;;;1.10;;
1725;SDS011;41776;48.260;8.928;2022-11-18T15:32:19;8.40;;;3.80;;
1725;SDS011;41776;48.260;8.928;2022-11-18T15:34:45;5.80;;;2.93;;
1725;SDS011;41776;48.260;8.928;2022-11-18T15:37:12;5.33;;;2.30;;
1725;SDS011;41776;48.260;8.928;2022-11-18T15:39:39;4.50;;;2.77;;
1725;SDS011;41776;48.260;8.928;2022-11-18T15:42:07;4.87;;;2.07;;
1725;SDS011;41776;48.260;8.928;2022-11-18T15:44:34;3.30;;;1.90;;
1725;SDS011;41776;48.260;8.928;2022-11-18T15:47:00;6.33;;;3.47;;
1725;SDS011;41776;48.260;8.928;2022-11-18T15:49:27;8.27;;;3.70;;